Flight Track Log - Related Links

Times and Time Zones

All times are in EDT time to prevent confusion due to time zone crossing. See the N627HS flight status page for this flight to view local times or setup timezone preferences in your user account.

Time Position Orientation Groundspeed Altitude Reporting Facility
EDT Latitude Longitude Course Direction KTS MPH feet Rate Location/Type
Wed 06:10:00 PM 35.0859 -87.8686 329° Northwest  Level FlightAware Approximate
Wed 06:14:08 PM 34.7928 -87.6792 312° West 303 349 2,800  Level Memphis Center
Wed 06:15:08 PM 34.8417 -87.7206 325° Northwest 246 283 4,400 1,700 Climbing Memphis Center
Wed 06:16:08 PM 34.8925 -87.7594 328° Northwest 227 261 6,200 1,800 Climbing Memphis Center
Wed 06:17:08 PM 34.9494 -87.7881 338° Northwest 222 255 8,000 1,750 Climbing Memphis Center
Wed 06:18:08 PM 34.9983 -87.8297 325° Northwest 217 250 9,700 1,400 Climbing Memphis Center
Wed 06:19:08 PM 35.0533 -87.8711 328° Northwest 217 250 10,800 1,350 Climbing Memphis Center
Wed 06:20:08 PM 35.1125 -87.9100 332° Northwest 227 261 12,400 1,450 Climbing Memphis Center
Wed 06:21:08 PM 35.1675 -87.9542 327° Northwest 233 268 13,700 800 Climbing Memphis Center
Wed 06:22:08 PM 35.2289 -88.0033 327° Northwest 245 282 14,000 350 Climbing Memphis Center
Wed 06:23:08 PM 35.2989 -88.0572 328° Northwest 270 311 14,400 1,200 Climbing Memphis Center
Wed 06:24:08 PM 35.3708 -88.1111 329° Northwest 288 331 16,400 1,700 Climbing Memphis Center
Wed 06:25:08 PM 35.4300 -88.1531 330° Northwest 276 318 17,800 1,400 Climbing Memphis Center
Wed 06:26:08 PM 35.4933 -88.1997 329° Northwest 271 312 19,200 1,200 Climbing Memphis Center
Wed 06:27:08 PM 35.5525 -88.2492 326° Northwest 266 306 20,200 1,050 Climbing Memphis Center
Wed 06:28:08 PM 35.6158 -88.2986 328° Northwest 266 306 21,300 1,150 Climbing Memphis Center
Wed 06:29:08 PM 35.6794 -88.3508 326° Northwest 266 306 22,500 1,150 Climbing Memphis Center
Wed 06:30:08 PM 35.7406 -88.3978 328° Northwest 266 306 23,600 1,050 Climbing Memphis Center
Wed 06:31:08 PM 35.8061 -88.4450 330° Northwest 266 306 24,600 1,150 Climbing Memphis Center
Wed 06:32:08 PM 35.8672 -88.4972 325° Northwest 266 306 25,900 1,100 Climbing Memphis Center
Wed 06:33:08 PM 35.9264 -88.5447 327° Northwest 266 306 26,800 800 Climbing Memphis Center
Wed 06:34:08 PM 35.9897 -88.5944 328° Northwest 266 306 27,500 700 Climbing Memphis Center
Wed 06:35:08 PM 36.0550 -88.6444 328° Northwest 271 312 28,200 750 Climbing Memphis Center
Wed 06:36:08 PM 36.1203 -88.6997 326° Northwest 271 312 29,000 800 Climbing Memphis Center
Wed 06:37:08 PM 36.1878 -88.7522 328° Northwest 271 312 29,800 750 Climbing Memphis Center
Wed 06:38:08 PM 36.2508 -88.8025 327° Northwest 276 318 30,500 700 Climbing Memphis Center
Wed 06:39:08 PM 36.3183 -88.8553 328° Northwest 281 323 31,200 700 Climbing Memphis Center
Wed 06:40:08 PM 36.3856 -88.9108 326° Northwest 286 329 31,900 650 Climbing Memphis Center
Wed 06:41:08 PM 36.4531 -88.9611 329° Northwest 286 329 32,500 650 Climbing Memphis Center
Wed 06:42:08 PM 36.5225 -89.0167 327° Northwest 286 329 33,200 700 Climbing Memphis Center
Wed 06:43:08 PM 36.5897 -89.0725 326° Northwest 286 329 33,900 400 Climbing Memphis Center
Wed 06:44:08 PM 36.6592 -89.1308 326° Northwest 286 329 34,000 50 Climbing Memphis Center
Wed 06:45:08 PM 36.7283 -89.1894 326° Northwest 296 341 34,000  Level Memphis Center
Wed 06:46:08 PM 36.8019 -89.2478 328° Northwest 309 356 34,000  Level Memphis Center
Wed 06:47:08 PM 36.8794 -89.3117 327° Northwest 320 368 34,000  Level Memphis Center
Wed 06:48:08 PM 36.9572 -89.3756 327° Northwest 326 375 34,000  Level Memphis Center
Wed 06:49:08 PM 37.0347 -89.4394 327° Northwest 331 381 34,000  Level Memphis Center
Wed 06:50:10 PM 37.1258 -89.5139 327° Northwest 342 394 34,000  Level Kansas City Center
Wed 06:51:12 PM 37.2067 -89.5778 328° Northwest 343 395 34,000  Level Kansas City Center
Wed 06:52:14 PM 37.2861 -89.6453 326° Northwest 346 398 34,000  Level Kansas City Center
Wed 06:53:16 PM 37.3681 -89.7114 327° Northwest 349 402 34,000  Level Kansas City Center
Wed 06:54:18 PM 37.4475 -89.7775 327° Northwest 345 397 34,000  Level Kansas City Center
Wed 06:55:20 PM 37.5286 -89.8433 327° Northwest 346 398 34,000  Level Kansas City Center
Wed 06:56:22 PM 37.6203 -89.9189 327° Northwest 350 403 34,000  Level Kansas City Center
Wed 06:57:24 PM 37.7011 -89.9856 327° Northwest 348 400 34,000  Level Kansas City Center
Wed 06:58:26 PM 37.7819 -90.0522 327° Northwest 347 399 34,000  Level Kansas City Center
Wed 06:59:28 PM 37.8625 -90.1200 326° Northwest 348 400 34,000  Level Kansas City Center
Wed 07:00:30 PM 37.9433 -90.1903 326° Northwest 351 404 34,000  Level Kansas City Center
Wed 07:01:32 PM 38.0406 -90.2725 326° Northwest 350 403 34,000  Level Kansas City Center
Wed 07:02:34 PM 38.1217 -90.3408 326° Northwest 351 404 34,000  Level Kansas City Center
Wed 07:03:36 PM 38.2028 -90.4108 326° Northwest 351 404 34,000  Level Kansas City Center
Wed 07:04:38 PM 38.2850 -90.4806 326° Northwest 352 405 34,000  Level Kansas City Center
Wed 07:05:40 PM 38.3669 -90.5514 326° Northwest 354 407 34,000  Level Kansas City Center
Wed 07:06:42 PM 38.4536 -90.6253 326° Northwest 354 407 34,000  Level Kansas City Center
Wed 07:07:44 PM 38.5358 -90.6953 326° Northwest 355 409 34,000 -339 Level Kansas City Center
Wed 07:08:46 PM 38.6353 -90.7819 326° Northwest 359 413 33,300 -726 Descending Kansas City Center
Wed 07:09:48 PM 38.7208 -90.8556 326° Northwest 367 422 32,500 -532 Descending Kansas City Center
Wed 07:10:50 PM 38.8103 -90.9319 326° Northwest 377 434 32,200 -242 Descending Kansas City Center
Wed 07:11:52 PM 38.8989 -91.0089 326° Northwest 381 438 32,000 -97 Descending Kansas City Center
Wed 07:12:54 PM 38.9861 -91.0828 327° Northwest 379 436 32,000  Level Kansas City Center
Wed 07:13:56 PM 39.0717 -91.1583 326° Northwest 376 433 32,000  Level Kansas City Center
Wed 07:14:58 PM 39.1556 -91.2333 325° Northwest 372 428 32,000  Level Kansas City Center
Wed 07:16:00 PM 39.2569 -91.3217 326° Northwest 369 425 32,000  Level Kansas City Center
Wed 07:17:03 PM 39.3414 -91.3969 325° Northwest 368 423 32,000 -432 Level Kansas City Center
Wed 07:18:05 PM 39.4289 -91.4733 326° Northwest 377 434 31,100 -484 Descending Kansas City Center
Wed 07:19:07 PM 39.5106 -91.5478 325° Northwest 383 441 31,000 -339 Descending Kansas City Center
Wed 07:20:09 PM 39.6158 -91.6414 326° Northwest 386 444 30,400 -484 Descending Kansas City Center
Wed 07:21:11 PM 39.7036 -91.7206 325° Northwest 387 445 30,000 -194 Descending Kansas City Center
Wed 07:22:13 PM 39.7917 -91.7983 326° Northwest 388 447 30,000  Level Kansas City Center
Wed 07:23:15 PM 39.8781 -91.8753 326° Northwest 382 440 30,000  Level Kansas City Center
Wed 07:24:17 PM 39.9614 -91.9533 324° Northwest 375 432 30,000  Level Kansas City Center
Wed 07:25:19 PM 40.0639 -92.0428 326° Northwest 373 429 30,000  Level Kansas City Center
Wed 07:26:21 PM 40.1481 -92.1189 325° Northwest 374 430 30,000  Level Kansas City Center
Wed 07:27:23 PM 40.2311 -92.1956 325° Northwest 372 428 30,000  Level Kansas City Center
Wed 07:28:25 PM 40.3147 -92.2697 326° Northwest 371 427 30,000  Level Kansas City Center
Wed 07:29:27 PM 40.4067 -92.3553 325° Northwest 373 429 30,000 -290 Level Kansas City Center
Wed 07:30:29 PM 40.4922 -92.4317 326° Northwest 373 429 29,400 -1,258 Descending Kansas City Center
Wed 07:31:31 PM 40.5767 -92.5167 323° Northwest 378 435 27,400 -2,075 Descending Kansas City Center
Wed 07:32:16 PM 40.6525 -92.5872 325° Northwest 393 452 25,700 -1,850 Descending Chicago Center
Wed 07:33:18 PM 40.7400 -92.6658 326° Northwest 387 445 24,100 -1,984 Descending Chicago Center
Wed 07:34:20 PM 40.8375 -92.7558 325° Northwest 364 419 21,600 -2,376 Descending Chicago Center
Wed 07:34:59 PM 40.8856 -92.8003 325° Northwest 359 413 20,100 -2,376 Descending Minneapolis Center
Wed 07:36:01 PM 40.9628 -92.8733 324° Northwest 349 402 17,600 -2,419 Descending Minneapolis Center
Wed 07:37:03 PM 41.0392 -92.9447 325° Northwest 342 394 15,100 -2,323 Descending Minneapolis Center
Wed 07:38:05 PM 41.1117 -93.0119 325° Northwest 328 377 12,800 -2,468 Descending Minneapolis Center
Wed 07:39:07 PM 41.1903 -93.0842 325° Northwest 299 344 10,000 -2,516 Descending Minneapolis Center
Wed 07:40:09 PM 41.2556 -93.1453 325° Northwest 285 328 7,600 -2,419 Descending Minneapolis Center
Wed 07:41:11 PM 41.3217 -93.2125 323° Northwest 279 321 5,000 -1,728 Descending Minneapolis Center
Wed 07:42:14 PM 41.3825 -93.2689 325° Northwest 267 307 4,000 -432 Descending Minneapolis Center
Wed 07:43:16 PM 41.4431 -93.3281 324° Northwest 255 293 4,100 -339 Climbing Minneapolis Center
Wed 07:44:18 PM 41.5039 -93.3858 325° Northwest 268 308 3,300 -532 Descending Minneapolis Center
Wed 07:45:20 PM 41.5636 -93.4436 324° Northwest 245 282 3,000 -387 Descending Minneapolis Center
Wed 07:46:22 PM 41.6089 -93.4878 324° Northwest 208 239 2,500 -339 Descending Minneapolis Center
Wed 07:47:24 PM 41.6589 -93.5322 326° Northwest 202 232 2,300 -242 Descending Minneapolis Center
Wed 07:48:26 PM 41.7056 -93.5333 359° North 169 194 2,000 -339 Descending Minneapolis Center
Wed 07:49:28 PM 41.7228 -93.5567 315° West 167 192 1,600 -387 Descending Minneapolis Center

Login

Don't have an account? Register now (free) for customized features, flight alerts, and more!